This is the latest recevied weather packets stored in our database for station/object SQ6PCH-10. If no packets are shown the sender has not sent any weather packets the latest 10 day(s).
| Time | Temp. | Humidity | Pressure | Rain* | Wind** | Luminosity | Snow |
|---|---|---|---|---|---|---|---|
| 1777817904 | 29.44° C | 14% | 999 hPa | - | - | - | - |
| 1777814903 | 28.89° C | 13% | 999.7 hPa | - | - | - | - |
| 1777814303 | 30.56° C | 12% | 999.8 hPa | - | - | - | - |
| 1777811302 | 32.22° C | 12% | 1000.3 hPa | - | - | - | - |
| 1777810701 | 31.67° C | 13% | 1000.4 hPa | - | - | - | - |
| 1777810101 | 30.56° C | 14% | 1000.4 hPa | - | - | - | - |
| 1777808901 | 30.56° C | 13% | 1000.7 hPa | - | - | - | - |
| 1777808301 | 30° C | 13% | 1000.9 hPa | - | - | - | - |
| 1777807100 | 32.22° C | 10% | 1001 hPa | - | - | - | - |
| 1777806500 | 30° C | 11% | 1001 hPa | - | - | - | - |
| 1777805900 | 31.11° C | 11% | 1001.2 hPa | - | - | - | - |
| 1777805300 | 32.22° C | 12% | 1001.2 hPa | - | - | - | - |
| 1777804699 | 32.22° C | 10% | 1001.4 hPa | - | - | - | - |
| 1777802899 | 30.56° C | 13% | 1001.5 hPa | - | - | - | - |
| 1777802299 | 32.78° C | 10% | 1001.7 hPa | - | - | - | - |
| 1777801699 | 31.11° C | 11% | 1001.8 hPa | - | - | - | - |
| 1777801098 | 31.11° C | 12% | 1002 hPa | - | - | - | - |
| 1777800498 | 30.56° C | 12% | 1001.8 hPa | - | - | - | - |
| 1777799898 | 28.89° C | 14% | 1001.9 hPa | - | - | - | - |
| 1777799298 | 28.33° C | 16% | 1002 hPa | - | - | - | - |
| 1777798698 | 28.89° C | 15% | 1002 hPa | - | - | - | - |
| 1777798098 | 27.22° C | 16% | 1002.2 hPa | - | - | - | - |
| 1777797497 | 27.22° C | 16% | 1002.2 hPa | - | - | - | - |
| 1777796897 | 26.11° C | 18% | 1002.2 hPa | - | - | - | - |
| 1777796297 | 26.67° C | 19% | 1002.3 hPa | - | - | - | - |
* Rain since midnight (hover to see other rain measurements)
** Current wind speed in m/s (hover to see current wind gust speed)